sensor_id;sensor_type;location;lat;lon;timestamp;temperature;humidity
9414;DHT22;4746;35.664;139.738;2023-07-29T00:01:10;31.20;99.90
9414;DHT22;4746;35.664;139.738;2023-07-29T00:03:37;31.30;99.90
9414;DHT22;4746;35.664;139.738;2023-07-29T00:06:05;31.30;99.90
9414;DHT22;4746;35.664;139.738;2023-07-29T00:08:32;31.40;99.90
9414;DHT22;4746;35.664;139.738;2023-07-29T00:11:00;31.40;99.90
9414;DHT22;4746;35.664;139.738;2023-07-29T00:13:27;31.50;99.90
9414;DHT22;4746;35.664;139.738;2023-07-29T00:15:56;31.50;99.90
9414;DHT22;4746;35.664;139.738;2023-07-29T00:18:24;31.50;99.90
9414;DHT22;4746;35.664;139.738;2023-07-29T00:20:51;31.50;99.90
9414;DHT22;4746;35.664;139.738;2023-07-29T00:23:19;31.60;99.90
9414;DHT22;4746;35.664;139.738;2023-07-29T00:25:47;31.60;99.90
9414;DHT22;4746;35.664;139.738;2023-07-29T00:28:15;31.70;99.90
9414;DHT22;4746;35.664;139.738;2023-07-29T00:30:43;31.70;99.90
9414;DHT22;4746;35.664;139.738;2023-07-29T00:33:10;31.80;99.90
9414;DHT22;4746;35.664;139.738;2023-07-29T00:35:37;31.80;99.90
9414;DHT22;4746;35.664;139.738;2023-07-29T00:38:05;31.80;99.90
9414;DHT22;4746;35.664;139.738;2023-07-29T00:40:35;31.60;99.90
9414;DHT22;4746;35.664;139.738;2023-07-29T00:43:03;31.60;99.90
9414;DHT22;4746;35.664;139.738;2023-07-29T00:45:32;31.60;99.90
9414;DHT22;4746;35.664;139.738;2023-07-29T00:48:02;31.70;99.90
9414;DHT22;4746;35.664;139.738;2023-07-29T00:50:32;31.80;99.90
9414;DHT22;4746;35.664;139.738;2023-07-29T00:53:00;31.80;99.90
9414;DHT22;4746;35.664;139.738;2023-07-29T00:55:28;32.00;99.90
9414;DHT22;4746;35.664;139.738;2023-07-29T00:57:56;32.00;99.90
9414;DHT22;4746;35.664;139.738;2023-07-29T01:00:24;32.10;99.90
9414;DHT22;4746;35.664;139.738;2023-07-29T01:02:52;32.20;99.90
9414;DHT22;4746;35.664;139.738;2023-07-29T01:05:21;32.30;99.90
9414;DHT22;4746;35.664;139.738;2023-07-29T01:08:19;32.40;99.90
9414;DHT22;4746;35.664;139.738;2023-07-29T01:17:13;32.70;99.90
9414;DHT22;4746;35.664;139.738;2023-07-29T01:22:37;32.70;99.90
9414;DHT22;4746;35.664;139.738;2023-07-29T01:25:06;32.80;99.90
9414;DHT22;4746;35.664;139.738;2023-07-29T01:27:34;32.80;99.90
9414;DHT22;4746;35.664;139.738;2023-07-29T01:30:04;32.80;99.90
9414;DHT22;4746;35.664;139.738;2023-07-29T01:36:07;32.90;99.90
9414;DHT22;4746;35.664;139.738;2023-07-29T01:38:42;33.00;99.90
9414;DHT22;4746;35.664;139.738;2023-07-29T01:41:11;33.00;99.90
9414;DHT22;4746;35.664;139.738;2023-07-29T01:43:40;33.00;99.90
9414;DHT22;4746;35.664;139.738;2023-07-29T01:46:11;32.90;99.90
9414;DHT22;4746;35.664;139.738;2023-07-29T01:48:40;32.90;99.90
9414;DHT22;4746;35.664;139.738;2023-07-29T01:51:08;32.80;99.90
9414;DHT22;4746;35.664;139.738;2023-07-29T01:53:39;32.80;99.90
9414;DHT22;4746;35.664;139.738;2023-07-29T01:56:06;32.90;99.90
9414;DHT22;4746;35.664;139.738;2023-07-29T01:58:34;32.80;99.90
9414;DHT22;4746;35.664;139.738;2023-07-29T02:01:01;32.90;99.90
9414;DHT22;4746;35.664;139.738;2023-07-29T02:03:29;32.90;99.90
9414;DHT22;4746;35.664;139.738;2023-07-29T02:05:56;32.90;99.90
9414;DHT22;4746;35.664;139.738;2023-07-29T02:08:24;32.90;99.90
9414;DHT22;4746;35.664;139.738;2023-07-29T02:10:51;32.90;99.90
9414;DHT22;4746;35.664;139.738;2023-07-29T02:13:19;32.90;99.90
9414;DHT22;4746;35.664;139.738;2023-07-29T02:15:46;32.90;99.90
9414;DHT22;4746;35.664;139.738;2023-07-29T02:18:14;33.00;99.90
9414;DHT22;4746;35.664;139.738;2023-07-29T02:20:41;32.90;99.90
9414;DHT22;4746;35.664;139.738;2023-07-29T02:23:15;32.90;99.90
9414;DHT22;4746;35.664;139.738;2023-07-29T02:25:43;32.90;99.90
9414;DHT22;4746;35.664;139.738;2023-07-29T02:28:11;32.90;99.90
9414;DHT22;4746;35.664;139.738;2023-07-29T02:30:41;32.90;99.90
9414;DHT22;4746;35.664;139.738;2023-07-29T02:33:11;32.90;99.90
9414;DHT22;4746;35.664;139.738;2023-07-29T02:35:38;32.90;99.90
9414;DHT22;4746;35.664;139.738;2023-07-29T02:38:10;32.80;99.90
9414;DHT22;4746;35.664;139.738;2023-07-29T02:40:38;32.90;99.90
9414;DHT22;4746;35.664;139.738;2023-07-29T02:43:07;32.90;99.90
9414;DHT22;4746;35.664;139.738;2023-07-29T02:45:34;32.90;99.90
9414;DHT22;4746;35.664;139.738;2023-07-29T02:48:02;32.70;99.90
9414;DHT22;4746;35.664;139.738;2023-07-29T02:50:29;32.70;99.90
9414;DHT22;4746;35.664;139.738;2023-07-29T02:52:57;32.80;99.90
9414;DHT22;4746;35.664;139.738;2023-07-29T02:55:25;32.80;99.90
9414;DHT22;4746;35.664;139.738;2023-07-29T02:57:53;32.80;99.90
9414;DHT22;4746;35.664;139.738;2023-07-29T03:00:21;32.90;99.90
9414;DHT22;4746;35.664;139.738;2023-07-29T03:02:50;32.90;99.90
9414;DHT22;4746;35.664;139.738;2023-07-29T03:05:18;33.00;99.90
9414;DHT22;4746;35.664;139.738;2023-07-29T03:07:45;33.00;99.90
9414;DHT22;4746;35.664;139.738;2023-07-29T03:13:41;33.00;99.90
9414;DHT22;4746;35.664;139.738;2023-07-29T03:16:14;33.10;99.90
9414;DHT22;4746;35.664;139.738;2023-07-29T03:18:43;33.00;99.90
9414;DHT22;4746;35.664;139.738;2023-07-29T03:21:11;33.10;99.90
9414;DHT22;4746;35.664;139.738;2023-07-29T03:23:39;33.30;99.90
9414;DHT22;4746;35.664;139.738;2023-07-29T03:26:07;33.40;99.90
9414;DHT22;4746;35.664;139.738;2023-07-29T03:28:40;33.50;99.90
9414;DHT22;4746;35.664;139.738;2023-07-29T03:31:09;33.60;99.90
9414;DHT22;4746;35.664;139.738;2023-07-29T03:33:39;33.70;99.90
9414;DHT22;4746;35.664;139.738;2023-07-29T03:36:06;33.80;99.90
9414;DHT22;4746;35.664;139.738;2023-07-29T03:38:34;33.90;99.90
9414;DHT22;4746;35.664;139.738;2023-07-29T03:41:07;34.00;99.90
9414;DHT22;4746;35.664;139.738;2023-07-29T03:43:36;34.10;99.90
9414;DHT22;4746;35.664;139.738;2023-07-29T03:46:03;34.20;99.90
9414;DHT22;4746;35.664;139.738;2023-07-29T03:48:31;34.30;99.90
9414;DHT22;4746;35.664;139.738;2023-07-29T03:50:59;34.30;99.90
9414;DHT22;4746;35.664;139.738;2023-07-29T03:53:26;34.30;99.90
9414;DHT22;4746;35.664;139.738;2023-07-29T03:55:54;34.40;99.90
9414;DHT22;4746;35.664;139.738;2023-07-29T03:58:22;34.40;99.90
9414;DHT22;4746;35.664;139.738;2023-07-29T04:00:50;34.50;99.90
9414;DHT22;4746;35.664;139.738;2023-07-29T04:03:17;34.60;99.90
9414;DHT22;4746;35.664;139.738;2023-07-29T04:05:45;34.60;99.90
9414;DHT22;4746;35.664;139.738;2023-07-29T04:08:12;34.60;99.90
9414;DHT22;4746;35.664;139.738;2023-07-29T04:10:51;34.70;99.90
9414;DHT22;4746;35.664;139.738;2023-07-29T04:13:23;34.80;99.90
9414;DHT22;4746;35.664;139.738;2023-07-29T04:15:51;34.90;99.90
9414;DHT22;4746;35.664;139.738;2023-07-29T04:18:18;35.00;99.90
9414;DHT22;4746;35.664;139.738;2023-07-29T04:20:45;35.10;99.90
9414;DHT22;4746;35.664;139.738;2023-07-29T04:23:14;35.20;99.90
9414;DHT22;4746;35.664;139.738;2023-07-29T04:25:42;35.40;99.90
9414;DHT22;4746;35.664;139.738;2023-07-29T04:28:09;35.60;99.90
9414;DHT22;4746;35.664;139.738;2023-07-29T04:30:37;35.80;99.90
9414;DHT22;4746;35.664;139.738;2023-07-29T04:33:04;35.90;99.90
9414;DHT22;4746;35.664;139.738;2023-07-29T04:35:31;35.90;99.90
9414;DHT22;4746;35.664;139.738;2023-07-29T04:37:59;36.10;99.90
9414;DHT22;4746;35.664;139.738;2023-07-29T04:40:26;36.30;99.90
9414;DHT22;4746;35.664;139.738;2023-07-29T04:42:55;36.40;99.90
9414;DHT22;4746;35.664;139.738;2023-07-29T04:45:22;36.40;99.90
9414;DHT22;4746;35.664;139.738;2023-07-29T04:47:50;36.50;99.90
9414;DHT22;4746;35.664;139.738;2023-07-29T04:50:18;36.70;99.90
9414;DHT22;4746;35.664;139.738;2023-07-29T04:52:46;36.70;99.90
9414;DHT22;4746;35.664;139.738;2023-07-29T04:55:13;36.80;99.90
9414;DHT22;4746;35.664;139.738;2023-07-29T04:57:41;36.90;99.90
9414;DHT22;4746;35.664;139.738;2023-07-29T05:00:08;37.10;99.90
9414;DHT22;4746;35.664;139.738;2023-07-29T05:02:36;37.00;99.90
9414;DHT22;4746;35.664;139.738;2023-07-29T05:05:04;37.10;99.90
9414;DHT22;4746;35.664;139.738;2023-07-29T05:07:32;37.10;99.90
9414;DHT22;4746;35.664;139.738;2023-07-29T05:09:59;37.30;99.90
9414;DHT22;4746;35.664;139.738;2023-07-29T05:12:27;37.30;99.90
9414;DHT22;4746;35.664;139.738;2023-07-29T05:14:55;37.40;99.90
9414;DHT22;4746;35.664;139.738;2023-07-29T05:17:23;37.30;99.90
9414;DHT22;4746;35.664;139.738;2023-07-29T05:19:50;37.40;99.90
9414;DHT22;4746;35.664;139.738;2023-07-29T05:22:18;37.50;99.90
9414;DHT22;4746;35.664;139.738;2023-07-29T05:24:45;37.40;99.90
9414;DHT22;4746;35.664;139.738;2023-07-29T05:27:13;37.40;99.90
9414;DHT22;4746;35.664;139.738;2023-07-29T05:29:40;37.30;99.90
9414;DHT22;4746;35.664;139.738;2023-07-29T05:32:08;37.30;99.90
9414;DHT22;4746;35.664;139.738;2023-07-29T05:34:35;37.50;99.90
9414;DHT22;4746;35.664;139.738;2023-07-29T05:37:03;37.60;99.90
9414;DHT22;4746;35.664;139.738;2023-07-29T05:39:31;37.50;99.90
9414;DHT22;4746;35.664;139.738;2023-07-29T05:41:59;37.50;99.90
9414;DHT22;4746;35.664;139.738;2023-07-29T05:44:29;37.50;99.90
9414;DHT22;4746;35.664;139.738;2023-07-29T05:46:59;37.60;99.90
9414;DHT22;4746;35.664;139.738;2023-07-29T05:49:28;37.60;99.90
9414;DHT22;4746;35.664;139.738;2023-07-29T05:51:55;37.80;99.90
9414;DHT22;4746;35.664;139.738;2023-07-29T05:54:23;38.10;99.90
9414;DHT22;4746;35.664;139.738;2023-07-29T05:56:50;38.20;99.90
9414;DHT22;4746;35.664;139.738;2023-07-29T05:59:19;38.50;99.90
9414;DHT22;4746;35.664;139.738;2023-07-29T06:01:47;38.50;99.90
9414;DHT22;4746;35.664;139.738;2023-07-29T06:04:14;38.50;99.90
9414;DHT22;4746;35.664;139.738;2023-07-29T06:06:42;38.70;99.90
9414;DHT22;4746;35.664;139.738;2023-07-29T06:09:09;39.00;99.90
9414;DHT22;4746;35.664;139.738;2023-07-29T06:11:36;39.70;99.90
9414;DHT22;4746;35.664;139.738;2023-07-29T06:14:04;40.00;99.90
9414;DHT22;4746;35.664;139.738;2023-07-29T06:16:31;40.40;99.90
9414;DHT22;4746;35.664;139.738;2023-07-29T06:18:59;40.40;99.90
9414;DHT22;4746;35.664;139.738;2023-07-29T06:21:26;40.60;99.90
9414;DHT22;4746;35.664;139.738;2023-07-29T06:23:54;40.90;99.90
9414;DHT22;4746;35.664;139.738;2023-07-29T06:26:21;41.30;99.90
9414;DHT22;4746;35.664;139.738;2023-07-29T06:28:49;41.40;99.90
9414;DHT22;4746;35.664;139.738;2023-07-29T06:31:16;41.40;99.90
9414;DHT22;4746;35.664;139.738;2023-07-29T06:33:46;41.50;99.90
9414;DHT22;4746;35.664;139.738;2023-07-29T06:36:14;41.60;99.90
9414;DHT22;4746;35.664;139.738;2023-07-29T06:38:42;41.90;99.90
9414;DHT22;4746;35.664;139.738;2023-07-29T06:41:09;42.40;99.90
9414;DHT22;4746;35.664;139.738;2023-07-29T06:43:37;43.00;99.90
9414;DHT22;4746;35.664;139.738;2023-07-29T06:46:04;43.30;99.90
9414;DHT22;4746;35.664;139.738;2023-07-29T06:48:32;43.90;99.90
9414;DHT22;4746;35.664;139.738;2023-07-29T06:50:59;44.30;99.90
9414;DHT22;4746;35.664;139.738;2023-07-29T06:53:28;45.30;98.70
9414;DHT22;4746;35.664;139.738;2023-07-29T06:55:56;45.70;95.60
9414;DHT22;4746;35.664;139.738;2023-07-29T06:58:24;46.10;90.40
9414;DHT22;4746;35.664;139.738;2023-07-29T07:00:51;46.80;88.80
9414;DHT22;4746;35.664;139.738;2023-07-29T07:03:19;47.50;83.10
9414;DHT22;4746;35.664;139.738;2023-07-29T07:05:46;48.10;74.80
9414;DHT22;4746;35.664;139.738;2023-07-29T07:08:14;48.20;71.00
9414;DHT22;4746;35.664;139.738;2023-07-29T07:10:41;48.60;65.90
9414;DHT22;4746;35.664;139.738;2023-07-29T07:13:08;49.20;59.90
9414;DHT22;4746;35.664;139.738;2023-07-29T07:15:36;49.10;59.10
9414;DHT22;4746;35.664;139.738;2023-07-29T07:18:03;49.70;56.70
9414;DHT22;4746;35.664;139.738;2023-07-29T07:20:31;50.30;54.20
9414;DHT22;4746;35.664;139.738;2023-07-29T07:22:58;50.60;52.10
9414;DHT22;4746;35.664;139.738;2023-07-29T07:25:26;50.20;49.00
9414;DHT22;4746;35.664;139.738;2023-07-29T07:27:55;50.10;49.30
9414;DHT22;4746;35.664;139.738;2023-07-29T07:30:22;50.20;48.00
9414;DHT22;4746;35.664;139.738;2023-07-29T07:32:49;50.10;46.60
9414;DHT22;4746;35.664;139.738;2023-07-29T07:35:17;50.20;45.90
9414;DHT22;4746;35.664;139.738;2023-07-29T07:37:45;50.30;45.70
9414;DHT22;4746;35.664;139.738;2023-07-29T07:40:12;50.30;45.50
9414;DHT22;4746;35.664;139.738;2023-07-29T07:42:40;50.30;44.50
9414;DHT22;4746;35.664;139.738;2023-07-29T07:45:07;50.00;44.70
9414;DHT22;4746;35.664;139.738;2023-07-29T07:47:36;50.30;45.10
9414;DHT22;4746;35.664;139.738;2023-07-29T07:50:04;50.30;44.00
9414;DHT22;4746;35.664;139.738;2023-07-29T07:52:31;49.90;44.50
9414;DHT22;4746;35.664;139.738;2023-07-29T07:54:59;49.80;44.90
9414;DHT22;4746;35.664;139.738;2023-07-29T07:57:26;49.70;45.00
9414;DHT22;4746;35.664;139.738;2023-07-29T07:59:54;50.20;45.30
9414;DHT22;4746;35.664;139.738;2023-07-29T08:02:21;50.30;44.80
9414;DHT22;4746;35.664;139.738;2023-07-29T08:04:49;50.60;44.20
9414;DHT22;4746;35.664;139.738;2023-07-29T08:07:16;49.80;44.00
9414;DHT22;4746;35.664;139.738;2023-07-29T08:09:44;49.60;44.10
9414;DHT22;4746;35.664;139.738;2023-07-29T08:12:12;49.80;44.10
9414;DHT22;4746;35.664;139.738;2023-07-29T08:14:41;49.50;43.90
9414;DHT22;4746;35.664;139.738;2023-07-29T08:17:08;48.60;43.80
9414;DHT22;4746;35.664;139.738;2023-07-29T08:19:36;48.60;43.90
9414;DHT22;4746;35.664;139.738;2023-07-29T08:22:03;48.10;44.00
9414;DHT22;4746;35.664;139.738;2023-07-29T08:24:31;48.00;44.30
9414;DHT22;4746;35.664;139.738;2023-07-29T08:27:00;48.40;44.70
9414;DHT22;4746;35.664;139.738;2023-07-29T08:29:30;48.50;44.50
9414;DHT22;4746;35.664;139.738;2023-07-29T08:31:57;48.60;44.20
9414;DHT22;4746;35.664;139.738;2023-07-29T08:34:25;48.40;44.90
9414;DHT22;4746;35.664;139.738;2023-07-29T08:36:52;48.40;44.20
9414;DHT22;4746;35.664;139.738;2023-07-29T08:39:20;48.30;44.00
9414;DHT22;4746;35.664;139.738;2023-07-29T08:42:04;48.20;43.60
9414;DHT22;4746;35.664;139.738;2023-07-29T08:44:44;48.20;42.70
9414;DHT22;4746;35.664;139.738;2023-07-29T08:47:15;48.00;42.90
9414;DHT22;4746;35.664;139.738;2023-07-29T08:49:44;47.50;43.60
9414;DHT22;4746;35.664;139.738;2023-07-29T08:52:14;46.60;44.10
9414;DHT22;4746;35.664;139.738;2023-07-29T08:54:42;46.20;45.40
9414;DHT22;4746;35.664;139.738;2023-07-29T08:57:10;45.60;46.30
9414;DHT22;4746;35.664;139.738;2023-07-29T08:59:39;45.20;47.30
9414;DHT22;4746;35.664;139.738;2023-07-29T09:02:07;45.20;46.80
9414;DHT22;4746;35.664;139.738;2023-07-29T09:04:34;45.00;47.70
9414;DHT22;4746;35.664;139.738;2023-07-29T09:07:02;44.40;48.50
9414;DHT22;4746;35.664;139.738;2023-07-29T09:09:32;43.70;49.70
9414;DHT22;4746;35.664;139.738;2023-07-29T09:12:00;42.70;52.30
9414;DHT22;4746;35.664;139.738;2023-07-29T09:14:28;42.20;54.60
9414;DHT22;4746;35.664;139.738;2023-07-29T09:16:55;41.50;58.70
9414;DHT22;4746;35.664;139.738;2023-07-29T09:19:25;40.90;62.20
9414;DHT22;4746;35.664;139.738;2023-07-29T09:21:53;40.60;66.10
9414;DHT22;4746;35.664;139.738;2023-07-29T09:24:21;39.90;72.00
9414;DHT22;4746;35.664;139.738;2023-07-29T09:26:50;38.90;88.20
9414;DHT22;4746;35.664;139.738;2023-07-29T09:29:24;38.10;96.80
9414;DHT22;4746;35.664;139.738;2023-07-29T09:32:18;37.20;99.90
9414;DHT22;4746;35.664;139.738;2023-07-29T09:34:50;36.50;99.90
9414;DHT22;4746;35.664;139.738;2023-07-29T09:37:24;35.90;99.90
9414;DHT22;4746;35.664;139.738;2023-07-29T09:39:52;35.50;99.90
9414;DHT22;4746;35.664;139.738;2023-07-29T09:42:20;35.00;99.90
9414;DHT22;4746;35.664;139.738;2023-07-29T09:44:50;34.60;99.90
9414;DHT22;4746;35.664;139.738;2023-07-29T09:47:25;34.30;99.90
9414;DHT22;4746;35.664;139.738;2023-07-29T09:49:53;33.90;99.90
9414;DHT22;4746;35.664;139.738;2023-07-29T09:52:23;33.70;99.90
9414;DHT22;4746;35.664;139.738;2023-07-29T09:54:51;33.40;99.90
9414;DHT22;4746;35.664;139.738;2023-07-29T09:57:20;33.20;99.90
9414;DHT22;4746;35.664;139.738;2023-07-29T09:59:55;32.90;99.90
9414;DHT22;4746;35.664;139.738;2023-07-29T10:02:23;32.90;99.90
9414;DHT22;4746;35.664;139.738;2023-07-29T10:04:55;32.60;99.90
9414;DHT22;4746;35.664;139.738;2023-07-29T10:07:24;32.50;99.90
9414;DHT22;4746;35.664;139.738;2023-07-29T10:09:55;32.30;99.90
9414;DHT22;4746;35.664;139.738;2023-07-29T10:12:25;32.20;99.90
9414;DHT22;4746;35.664;139.738;2023-07-29T10:15:00;32.00;99.90
9414;DHT22;4746;35.664;139.738;2023-07-29T10:17:38;32.00;99.90
9414;DHT22;4746;35.664;139.738;2023-07-29T10:20:07;31.90;99.90
9414;DHT22;4746;35.664;139.738;2023-07-29T10:22:39;31.80;99.90
9414;DHT22;4746;35.664;139.738;2023-07-29T10:25:18;31.60;99.90
9414;DHT22;4746;35.664;139.738;2023-07-29T10:28:06;31.50;99.90
9414;DHT22;4746;35.664;139.738;2023-07-29T10:30:34;31.30;99.90
9414;DHT22;4746;35.664;139.738;2023-07-29T10:33:03;31.20;99.90
9414;DHT22;4746;35.664;139.738;2023-07-29T10:35:33;31.20;99.90
9414;DHT22;4746;35.664;139.738;2023-07-29T10:38:02;31.00;99.90
9414;DHT22;4746;35.664;139.738;2023-07-29T10:40:47;30.90;99.90
9414;DHT22;4746;35.664;139.738;2023-07-29T10:43:36;30.80;99.90
9414;DHT22;4746;35.664;139.738;2023-07-29T10:48:55;30.80;99.90
9414;DHT22;4746;35.664;139.738;2023-07-29T10:51:28;30.70;99.90
9414;DHT22;4746;35.664;139.738;2023-07-29T10:54:08;30.70;99.90
9414;DHT22;4746;35.664;139.738;2023-07-29T10:56:48;30.60;99.90
9414;DHT22;4746;35.664;139.738;2023-07-29T11:01:58;30.60;99.90
9414;DHT22;4746;35.664;139.738;2023-07-29T11:04:29;30.50;99.90
9414;DHT22;4746;35.664;139.738;2023-07-29T11:09:40;30.50;99.90
9414;DHT22;4746;35.664;139.738;2023-07-29T11:12:40;30.50;99.90
9414;DHT22;4746;35.664;139.738;2023-07-29T11:15:27;30.50;99.90
9414;DHT22;4746;35.664;139.738;2023-07-29T11:17:56;30.40;99.90
9414;DHT22;4746;35.664;139.738;2023-07-29T11:20:29;30.40;99.90
9414;DHT22;4746;35.664;139.738;2023-07-29T11:23:00;30.40;99.90
9414;DHT22;4746;35.664;139.738;2023-07-29T11:25:30;30.20;99.90
9414;DHT22;4746;35.664;139.738;2023-07-29T11:28:00;30.10;99.90
9414;DHT22;4746;35.664;139.738;2023-07-29T11:30:27;30.10;99.90
9414;DHT22;4746;35.664;139.738;2023-07-29T11:33:00;30.10;99.90
9414;DHT22;4746;35.664;139.738;2023-07-29T11:35:27;30.00;99.90
9414;DHT22;4746;35.664;139.738;2023-07-29T11:37:55;30.00;99.90
9414;DHT22;4746;35.664;139.738;2023-07-29T11:40:24;30.00;99.90
9414;DHT22;4746;35.664;139.738;2023-07-29T11:42:52;30.00;99.90
9414;DHT22;4746;35.664;139.738;2023-07-29T11:45:22;30.10;99.90
9414;DHT22;4746;35.664;139.738;2023-07-29T11:47:50;30.10;99.90
9414;DHT22;4746;35.664;139.738;2023-07-29T11:50:17;30.20;99.90
9414;DHT22;4746;35.664;139.738;2023-07-29T11:52:46;30.10;99.90
9414;DHT22;4746;35.664;139.738;2023-07-29T11:55:15;30.10;99.90
9414;DHT22;4746;35.664;139.738;2023-07-29T11:57:43;30.10;99.90
9414;DHT22;4746;35.664;139.738;2023-07-29T12:00:11;30.10;99.90
9414;DHT22;4746;35.664;139.738;2023-07-29T12:02:42;30.00;99.90
9414;DHT22;4746;35.664;139.738;2023-07-29T12:05:13;30.00;99.90
9414;DHT22;4746;35.664;139.738;2023-07-29T12:07:44;30.00;99.90
9414;DHT22;4746;35.664;139.738;2023-07-29T12:10:12;29.90;99.90
9414;DHT22;4746;35.664;139.738;2023-07-29T12:12:50;29.90;99.90
9414;DHT22;4746;35.664;139.738;2023-07-29T12:15:28;29.90;99.90
9414;DHT22;4746;35.664;139.738;2023-07-29T12:17:57;29.90;99.90
9414;DHT22;4746;35.664;139.738;2023-07-29T12:20:26;29.80;99.90
9414;DHT22;4746;35.664;139.738;2023-07-29T12:22:57;29.80;99.90
9414;DHT22;4746;35.664;139.738;2023-07-29T12:25:31;29.70;99.90
9414;DHT22;4746;35.664;139.738;2023-07-29T12:28:08;29.70;99.90
9414;DHT22;4746;35.664;139.738;2023-07-29T12:30:42;29.70;99.90
9414;DHT22;4746;35.664;139.738;2023-07-29T12:33:09;29.70;99.90
9414;DHT22;4746;35.664;139.738;2023-07-29T12:35:37;29.70;99.90
9414;DHT22;4746;35.664;139.738;2023-07-29T12:38:05;29.70;99.90
9414;DHT22;4746;35.664;139.738;2023-07-29T12:40:38;29.70;99.90
9414;DHT22;4746;35.664;139.738;2023-07-29T12:43:06;29.70;99.90
9414;DHT22;4746;35.664;139.738;2023-07-29T12:45:37;29.80;99.90
9414;DHT22;4746;35.664;139.738;2023-07-29T12:48:11;29.70;99.90
9414;DHT22;4746;35.664;139.738;2023-07-29T12:50:38;29.70;99.90
9414;DHT22;4746;35.664;139.738;2023-07-29T12:53:08;29.70;99.90
9414;DHT22;4746;35.664;139.738;2023-07-29T12:55:37;29.70;99.90
9414;DHT22;4746;35.664;139.738;2023-07-29T12:58:05;29.70;99.90
9414;DHT22;4746;35.664;139.738;2023-07-29T13:00:33;29.70;99.90
9414;DHT22;4746;35.664;139.738;2023-07-29T13:03:00;29.70;99.90
9414;DHT22;4746;35.664;139.738;2023-07-29T13:05:31;29.70;99.90
9414;DHT22;4746;35.664;139.738;2023-07-29T13:07:59;29.70;99.90
9414;DHT22;4746;35.664;139.738;2023-07-29T13:10:27;29.70;99.90
9414;DHT22;4746;35.664;139.738;2023-07-29T13:12:54;29.70;99.90
9414;DHT22;4746;35.664;139.738;2023-07-29T13:15:22;29.70;99.90
9414;DHT22;4746;35.664;139.738;2023-07-29T13:17:49;29.80;99.90
9414;DHT22;4746;35.664;139.738;2023-07-29T13:20:17;29.80;99.90
9414;DHT22;4746;35.664;139.738;2023-07-29T13:22:44;29.70;99.90
9414;DHT22;4746;35.664;139.738;2023-07-29T13:25:12;29.80;99.90
9414;DHT22;4746;35.664;139.738;2023-07-29T13:27:39;29.80;99.90
9414;DHT22;4746;35.664;139.738;2023-07-29T13:30:07;29.80;99.90
9414;DHT22;4746;35.664;139.738;2023-07-29T13:32:35;29.80;99.90
9414;DHT22;4746;35.664;139.738;2023-07-29T13:35:03;29.80;99.90
9414;DHT22;4746;35.664;139.738;2023-07-29T13:37:31;29.80;99.90
9414;DHT22;4746;35.664;139.738;2023-07-29T13:39:58;29.90;99.90
9414;DHT22;4746;35.664;139.738;2023-07-29T13:42:26;29.90;99.90
9414;DHT22;4746;35.664;139.738;2023-07-29T13:44:53;29.80;99.90
9414;DHT22;4746;35.664;139.738;2023-07-29T13:47:21;29.90;99.90
9414;DHT22;4746;35.664;139.738;2023-07-29T13:49:48;29.80;99.90
9414;DHT22;4746;35.664;139.738;2023-07-29T13:52:16;29.80;99.90
9414;DHT22;4746;35.664;139.738;2023-07-29T13:54:43;29.80;99.90
9414;DHT22;4746;35.664;139.738;2023-07-29T13:57:11;29.80;99.90
9414;DHT22;4746;35.664;139.738;2023-07-29T13:59:38;29.80;99.90
9414;DHT22;4746;35.664;139.738;2023-07-29T14:02:06;29.80;99.90
9414;DHT22;4746;35.664;139.738;2023-07-29T14:04:36;29.80;99.90
9414;DHT22;4746;35.664;139.738;2023-07-29T14:07:03;29.80;99.90
9414;DHT22;4746;35.664;139.738;2023-07-29T14:09:31;29.70;99.90
9414;DHT22;4746;35.664;139.738;2023-07-29T14:11:59;29.70;99.90
9414;DHT22;4746;35.664;139.738;2023-07-29T14:14:26;29.70;99.90
9414;DHT22;4746;35.664;139.738;2023-07-29T14:16:54;29.70;99.90
9414;DHT22;4746;35.664;139.738;2023-07-29T14:19:22;29.80;99.90
9414;DHT22;4746;35.664;139.738;2023-07-29T14:21:50;29.80;99.90
9414;DHT22;4746;35.664;139.738;2023-07-29T14:24:18;29.80;99.90
9414;DHT22;4746;35.664;139.738;2023-07-29T14:26:46;29.70;99.90
9414;DHT22;4746;35.664;139.738;2023-07-29T14:29:13;29.70;99.90
9414;DHT22;4746;35.664;139.738;2023-07-29T14:31:41;29.70;99.90
9414;DHT22;4746;35.664;139.738;2023-07-29T14:34:09;29.70;99.90
9414;DHT22;4746;35.664;139.738;2023-07-29T14:36:37;29.70;99.90
9414;DHT22;4746;35.664;139.738;2023-07-29T14:39:04;29.60;99.90
9414;DHT22;4746;35.664;139.738;2023-07-29T14:41:32;29.60;99.90
9414;DHT22;4746;35.664;139.738;2023-07-29T14:43:59;29.60;99.90
9414;DHT22;4746;35.664;139.738;2023-07-29T14:46:27;29.50;99.90
9414;DHT22;4746;35.664;139.738;2023-07-29T14:48:54;29.60;99.90
9414;DHT22;4746;35.664;139.738;2023-07-29T14:51:22;29.60;99.90
9414;DHT22;4746;35.664;139.738;2023-07-29T14:53:49;29.60;99.90
9414;DHT22;4746;35.664;139.738;2023-07-29T14:56:17;29.70;99.90
9414;DHT22;4746;35.664;139.738;2023-07-29T14:58:45;29.70;99.90
9414;DHT22;4746;35.664;139.738;2023-07-29T15:01:13;29.70;99.90
9414;DHT22;4746;35.664;139.738;2023-07-29T15:03:40;29.60;99.90
9414;DHT22;4746;35.664;139.738;2023-07-29T15:06:09;29.60;99.90
9414;DHT22;4746;35.664;139.738;2023-07-29T15:08:36;29.50;99.90
9414;DHT22;4746;35.664;139.738;2023-07-29T15:11:04;29.50;99.90
9414;DHT22;4746;35.664;139.738;2023-07-29T15:13:33;29.50;99.90
9414;DHT22;4746;35.664;139.738;2023-07-29T15:16:00;29.50;99.90
9414;DHT22;4746;35.664;139.738;2023-07-29T15:18:28;29.50;99.90
9414;DHT22;4746;35.664;139.738;2023-07-29T15:20:57;29.40;99.90
9414;DHT22;4746;35.664;139.738;2023-07-29T15:23:26;29.30;99.90
9414;DHT22;4746;35.664;139.738;2023-07-29T15:25:53;29.30;99.90
9414;DHT22;4746;35.664;139.738;2023-07-29T15:28:21;29.30;99.90
9414;DHT22;4746;35.664;139.738;2023-07-29T15:30:51;29.30;99.90
9414;DHT22;4746;35.664;139.738;2023-07-29T15:33:20;29.20;99.90
9414;DHT22;4746;35.664;139.738;2023-07-29T15:35:47;29.20;99.90
9414;DHT22;4746;35.664;139.738;2023-07-29T15:38:15;29.20;99.90
9414;DHT22;4746;35.664;139.738;2023-07-29T15:40:43;29.20;99.90
9414;DHT22;4746;35.664;139.738;2023-07-29T15:43:10;29.20;99.90
9414;DHT22;4746;35.664;139.738;2023-07-29T15:45:38;29.20;99.90
9414;DHT22;4746;35.664;139.738;2023-07-29T15:48:05;29.10;99.90
9414;DHT22;4746;35.664;139.738;2023-07-29T15:50:33;29.10;99.90
9414;DHT22;4746;35.664;139.738;2023-07-29T15:53:00;29.10;99.90
9414;DHT22;4746;35.664;139.738;2023-07-29T15:55:29;29.10;99.90
9414;DHT22;4746;35.664;139.738;2023-07-29T15:57:57;29.20;99.90
9414;DHT22;4746;35.664;139.738;2023-07-29T16:00:24;29.10;99.90
9414;DHT22;4746;35.664;139.738;2023-07-29T16:02:55;29.10;99.90
9414;DHT22;4746;35.664;139.738;2023-07-29T16:05:22;29.10;99.90